createdAt,value
2022-10-23T00:10:52.194Z,11.70
2022-10-23T00:25:52.790Z,11.37
2022-10-23T00:40:52.932Z,11.46
2022-10-23T00:55:53.023Z,11.94
2022-10-23T01:10:53.661Z,12.05
2022-10-23T01:25:53.241Z,12.28
2022-10-23T01:40:53.354Z,12.49
2022-10-23T01:55:53.924Z,12.53
2022-10-23T02:10:54.102Z,12.45
2022-10-23T02:25:54.668Z,12.13
2022-10-23T02:40:54.782Z,11.94
2022-10-23T02:55:54.882Z,11.73
2022-10-23T03:10:55.033Z,11.03
2022-10-23T03:25:56.096Z,10.56
2022-10-23T03:40:55.699Z,10.26
2022-10-23T03:55:55.804Z,9.72
2022-10-23T04:10:56.463Z,9.31
2022-10-23T04:25:56.602Z,8.89
2022-10-23T04:40:56.304Z,8.20
2022-10-23T04:55:56.910Z,8.02
2022-10-23T05:10:57.027Z,7.89
2022-10-23T05:25:56.619Z,7.55
2022-10-23T05:40:56.876Z,7.37
2022-10-23T05:55:57.350Z,7.40
2022-10-23T06:10:57.090Z,7.03
2022-10-23T06:25:57.600Z,7.07
2022-10-23T06:40:57.735Z,7.16
2022-10-23T06:55:57.548Z,7.86
2022-10-23T07:10:57.986Z,8.50
2022-10-23T07:25:57.604Z,9.20
2022-10-23T07:40:57.763Z,10.22
2022-10-23T07:55:58.258Z,10.97
2022-10-23T08:10:57.894Z,12.16
2022-10-23T08:25:59.919Z,13.81
2022-10-23T08:41:02.514Z,15.69
2022-10-23T08:56:02.662Z,17.03
2022-10-23T09:11:03.269Z,18.32
2022-10-23T09:26:02.895Z,19.19
2022-10-23T09:41:03.010Z,19.66
2022-10-23T09:56:03.046Z,20.38
2022-10-23T10:11:04.432Z,21.16
2022-10-23T10:26:05.831Z,21.52
2022-10-23T10:41:07.685Z,21.69
2022-10-23T11:11:14.875Z,21.31
2022-10-23T11:26:19.784Z,21.32
2022-10-23T11:41:23.699Z,21.54
2022-10-23T11:56:27.198Z,21.59
2022-10-23T12:11:27.761Z,21.53
2022-10-23T12:26:28.517Z,21.50
2022-10-23T12:41:29.110Z,21.35
2022-10-23T12:56:32.988Z,20.98
2022-10-23T13:11:35.636Z,20.33
2022-10-23T13:26:36.993Z,20.03
2022-10-23T13:41:38.382Z,20.21
2022-10-23T13:56:40.246Z,19.87
2022-10-23T14:11:41.654Z,19.74
2022-10-23T14:26:43.516Z,19.31
2022-10-23T14:41:44.384Z,18.85
2022-10-23T14:56:46.795Z,18.51
2022-10-23T15:11:48.508Z,18.20
2022-10-23T15:26:50.003Z,17.77
2022-10-23T15:41:51.813Z,17.43
2022-10-23T15:56:53.227Z,16.97
2022-10-23T16:11:53.313Z,16.63
2022-10-23T16:26:54.144Z,16.46
2022-10-23T16:41:55.517Z,16.25
2022-10-23T16:56:58.049Z,16.08
2022-10-23T17:11:59.418Z,16.09
2022-10-23T17:27:00.155Z,15.71
2022-10-23T17:42:00.282Z,15.60
2022-10-23T17:57:00.835Z,15.41
2022-10-23T18:12:01.588Z,15.21
2022-10-23T18:27:03.946Z,14.77
2022-10-23T18:42:05.327Z,14.62
2022-10-23T18:57:06.686Z,14.86
2022-10-23T19:12:08.662Z,14.86
2022-10-23T19:27:09.929Z,15.02
2022-10-23T19:42:11.323Z,15.20
2022-10-23T19:57:12.639Z,15.13
2022-10-23T20:12:13.499Z,15.07
2022-10-23T20:27:14.875Z,15.13
2022-10-23T20:42:14.518Z,14.98
2022-10-23T20:57:17.903Z,14.96
2022-10-23T21:12:20.229Z,14.69
2022-10-23T21:27:20.833Z,14.50
2022-10-23T21:42:21.514Z,14.33
2022-10-23T21:57:22.029Z,14.18
2022-10-23T22:12:23.647Z,14.25
2022-10-23T22:27:24.569Z,14.17
2022-10-23T22:42:26.442Z,14.33
2022-10-23T23:12:28.416Z,14.12
2022-10-23T23:27:29.804Z,13.84
2022-10-23T23:42:30.001Z,13.60
2022-10-23T23:57:31.397Z,13.51
